createdAt,value
2022-12-26T00:01:24.022Z,26.98
2022-12-26T00:06:27.805Z,29.70
2022-12-26T00:11:29.864Z,28.38
2022-12-26T00:16:31.763Z,28.77
2022-12-26T00:21:34.016Z,27.60
2022-12-26T00:26:36.214Z,27.60
2022-12-26T00:31:38.201Z,28.42
2022-12-26T00:36:40.225Z,27.58
2022-12-26T00:41:43.499Z,27.95
2022-12-26T00:46:45.236Z,27.60
2022-12-26T00:51:46.917Z,26.17
2022-12-26T00:56:48.911Z,26.73
2022-12-26T01:01:51.090Z,27.73
2022-12-26T01:06:52.796Z,28.38
2022-12-26T01:11:54.384Z,30.08
2022-12-26T01:16:56.068Z,28.23
2022-12-26T01:21:57.749Z,28.73
2022-12-26T01:26:59.323Z,27.15
2022-12-26T01:32:01.372Z,27.20
2022-12-26T01:37:03.027Z,27.20
2022-12-26T01:42:12.996Z,27.17
2022-12-26T01:47:15.800Z,28.88
2022-12-26T01:52:26.011Z,28.17
2022-12-26T01:57:42.695Z,28.95
2022-12-26T02:03:03.892Z,27.02
2022-12-26T02:08:11.777Z,28.00
2022-12-26T02:13:13.993Z,29.50
2022-12-26T02:18:15.875Z,29.73
2022-12-26T02:23:36.205Z,33.72
2022-12-26T02:29:30.539Z,35.03
2022-12-26T02:34:50.115Z,36.17
2022-12-26T02:40:12.668Z,35.00
2022-12-26T02:45:45.029Z,34.60
2022-12-26T02:51:08.419Z,34.40
2022-12-26T02:56:40.892Z,33.63
2022-12-26T03:02:05.763Z,35.92
2022-12-26T03:07:36.787Z,34.08
2022-12-26T03:13:12.643Z,38.25
2022-12-26T03:18:14.896Z,34.92
2022-12-26T03:23:18.786Z,32.67
2022-12-26T03:28:21.897Z,31.35
2022-12-26T03:33:49.303Z,30.58
2022-12-26T03:39:08.004Z,29.38
2022-12-26T03:44:58.900Z,31.00
2022-12-26T03:50:25.996Z,28.45
2022-12-26T03:56:26.072Z,35.25
2022-12-26T04:01:50.701Z,32.08
2022-12-26T04:07:24.552Z,29.23
2022-12-26T04:12:48.813Z,32.15
2022-12-26T04:18:16.853Z,30.00
2022-12-26T04:23:49.657Z,33.23
2022-12-26T04:29:10.492Z,30.30
2022-12-26T04:34:40.675Z,27.27
2022-12-26T04:45:08.830Z,28.55
2022-12-26T04:50:14.336Z,32.10
2022-12-26T04:55:18.084Z,32.33
2022-12-26T05:00:20.272Z,32.28
2022-12-26T05:05:40.830Z,29.63
2022-12-26T05:10:42.458Z,31.80
2022-12-26T05:16:03.002Z,39.47
2022-12-26T05:21:23.460Z,29.75
2022-12-26T05:26:43.805Z,26.00
2022-12-26T05:31:45.570Z,27.13
2022-12-26T05:36:56.505Z,26.25
2022-12-26T05:41:58.240Z,23.75
2022-12-26T05:46:59.907Z,26.63
2022-12-26T05:52:01.821Z,24.73
2022-12-26T05:57:04.003Z,27.75
2022-12-26T06:02:06.279Z,31.13
2022-12-26T06:07:08.091Z,26.80
2022-12-26T06:12:09.780Z,31.83
2022-12-26T06:17:11.439Z,29.75
2022-12-26T06:22:13.107Z,27.27
2022-12-26T06:27:14.814Z,25.75
2022-12-26T06:32:16.408Z,26.63
2022-12-26T06:37:18.209Z,26.30
2022-12-26T06:42:19.824Z,26.42
2022-12-26T06:47:21.565Z,25.15
2022-12-26T06:52:23.188Z,22.92
2022-12-26T06:57:24.782Z,24.98
2022-12-26T07:02:26.488Z,21.65
2022-12-26T07:07:28.155Z,22.95
2022-12-26T07:12:29.756Z,27.33
2022-12-26T07:17:31.639Z,27.77
2022-12-26T07:22:33.497Z,25.75
2022-12-26T07:27:35.105Z,25.75
2022-12-26T07:32:36.734Z,25.52
2022-12-26T07:37:38.422Z,25.73
2022-12-26T07:42:40.041Z,22.17
2022-12-26T07:47:41.681Z,21.95
2022-12-26T07:52:43.375Z,26.77
2022-12-26T07:57:49.417Z,22.67
2022-12-26T08:02:53.149Z,24.73
2022-12-26T08:07:54.825Z,25.40
2022-12-26T08:12:56.595Z,27.52
2022-12-26T08:17:58.204Z,26.20
2022-12-26T08:22:59.992Z,23.95
2022-12-26T08:28:02.555Z,23.20
2022-12-26T08:33:04.219Z,24.80
2022-12-26T08:38:06.808Z,25.08
2022-12-26T08:48:31.100Z,24.98
2022-12-26T08:53:35.825Z,24.27
2022-12-26T08:58:37.611Z,25.48
2022-12-26T09:03:41.029Z,27.73
2022-12-26T09:08:43.278Z,24.10
2022-12-26T09:13:45.915Z,23.17
2022-12-26T09:18:48.647Z,24.98
2022-12-26T09:23:51.091Z,24.65
2022-12-26T09:28:53.333Z,24.15
2022-12-26T09:33:55.667Z,23.95
2022-12-26T09:38:59.588Z,22.92
2022-12-26T09:44:28.121Z,23.15
2022-12-26T09:50:04.281Z,22.25
2022-12-26T09:55:45.924Z,22.95
2022-12-26T10:00:56.786Z,25.55
2022-12-26T10:06:16.834Z,22.60
2022-12-26T10:11:30.322Z,24.92
2022-12-26T10:16:36.499Z,23.70
2022-12-26T10:21:49.462Z,25.35
2022-12-26T10:26:56.883Z,23.42
2022-12-26T10:32:26.052Z,26.10
2022-12-26T10:37:40.273Z,26.25
2022-12-26T10:42:52.120Z,27.08
2022-12-26T10:47:54.740Z,33.95
2022-12-26T10:52:58.172Z,29.38
2022-12-26T10:58:10.230Z,27.73
2022-12-26T11:03:18.162Z,28.60
2022-12-26T11:08:28.486Z,30.13
2022-12-26T11:13:35.762Z,28.83
2022-12-26T11:18:48.174Z,26.73
2022-12-26T11:24:10.891Z,27.65
2022-12-26T11:29:20.620Z,24.58
2022-12-26T11:34:34.596Z,25.38
2022-12-26T11:39:37.873Z,24.25
2022-12-26T11:44:44.935Z,24.20
2022-12-26T11:50:04.731Z,24.23
2022-12-26T11:55:24.799Z,25.02
2022-12-26T12:00:27.311Z,23.30
2022-12-26T12:05:28.841Z,23.77
2022-12-26T12:10:47.919Z,24.42
2022-12-26T12:16:15.091Z,23.70
2022-12-26T12:21:53.983Z,23.98
2022-12-26T12:27:04.600Z,23.80
2022-12-26T12:32:24.351Z,21.52
2022-12-26T12:38:14.151Z,23.08
2022-12-26T12:43:26.991Z,21.50
2022-12-26T12:49:05.399Z,22.35
2022-12-26T12:54:25.985Z,20.58
2022-12-26T12:59:46.201Z,22.10
2022-12-26T13:04:54.594Z,22.25
2022-12-26T13:10:03.834Z,21.50
2022-12-26T13:15:42.956Z,19.95
2022-12-26T13:20:49.126Z,20.60
2022-12-26T13:26:27.141Z,19.02
2022-12-26T13:31:39.924Z,18.60
2022-12-26T13:36:50.683Z,20.25
2022-12-26T13:42:16.475Z,18.65
2022-12-26T13:47:31.711Z,17.75
2022-12-26T13:52:41.758Z,18.95
2022-12-26T13:57:45.079Z,18.67
2022-12-26T14:03:21.618Z,17.85
2022-12-26T14:09:05.047Z,16.95
2022-12-26T14:14:26.865Z,15.98
2022-12-26T14:19:49.888Z,16.92
2022-12-26T14:24:54.490Z,16.58
2022-12-26T14:30:23.509Z,17.23
2022-12-26T14:35:56.034Z,15.60
2022-12-26T14:41:31.056Z,17.52
2022-12-26T14:46:32.843Z,17.63
2022-12-26T14:51:37.976Z,18.10
2022-12-26T14:56:39.884Z,16.90
2022-12-26T15:01:41.702Z,16.83
2022-12-26T15:06:56.188Z,15.93
2022-12-26T15:12:00.525Z,15.52
2022-12-26T15:17:11.099Z,15.63
2022-12-26T15:22:52.890Z,15.48
2022-12-26T15:27:57.546Z,14.40
2022-12-26T15:33:16.860Z,16.17
2022-12-26T15:43:40.284Z,14.50
2022-12-26T15:48:57.527Z,15.73
2022-12-26T15:54:56.069Z,15.15
2022-12-26T16:00:10.800Z,18.00
2022-12-26T16:05:31.346Z,15.63
2022-12-26T16:10:36.034Z,14.50
2022-12-26T16:15:52.064Z,17.27
2022-12-26T16:21:16.193Z,13.77
2022-12-26T16:26:28.921Z,14.38
2022-12-26T16:31:31.272Z,15.63
2022-12-26T16:36:37.231Z,15.05
2022-12-26T16:42:01.723Z,16.08
2022-12-26T16:47:08.194Z,20.00
2022-12-26T16:52:31.545Z,21.42
2022-12-26T16:57:36.330Z,14.60
2022-12-26T17:02:38.361Z,16.73
2022-12-26T17:07:44.891Z,16.48
2022-12-26T17:12:47.788Z,16.17
2022-12-26T17:17:49.778Z,15.23
2022-12-26T17:22:55.868Z,16.40
2022-12-26T17:28:09.841Z,18.10
2022-12-26T17:33:26.759Z,14.02
2022-12-26T17:38:29.429Z,14.80
2022-12-26T17:43:39.340Z,14.85
2022-12-26T17:48:41.916Z,14.98
2022-12-26T17:53:48.947Z,18.73
2022-12-26T17:58:51.019Z,17.70
2022-12-26T18:03:52.961Z,14.52
2022-12-26T18:08:54.700Z,15.10
2022-12-26T18:13:56.363Z,16.17
2022-12-26T18:18:57.971Z,16.75
2022-12-26T18:23:59.599Z,18.25
2022-12-26T18:29:02.196Z,18.05
2022-12-26T18:34:03.892Z,15.90
2022-12-26T18:39:05.962Z,18.27
2022-12-26T18:44:07.877Z,17.60
2022-12-26T18:49:10.017Z,20.05
2022-12-26T18:54:11.670Z,17.48
2022-12-26T18:59:13.438Z,16.60
2022-12-26T19:04:16.407Z,18.00
2022-12-26T19:09:18.102Z,17.15
2022-12-26T19:14:21.493Z,20.95
2022-12-26T19:19:26.592Z,17.95
2022-12-26T19:24:28.282Z,20.02
2022-12-26T19:29:30.011Z,18.70
2022-12-26T19:34:31.613Z,18.48
2022-12-26T19:39:33.420Z,17.88
2022-12-26T19:44:35.058Z,19.77
2022-12-26T19:49:36.715Z,18.25
2022-12-26T19:54:38.487Z,17.83
2022-12-26T19:59:40.095Z,16.58
2022-12-26T20:04:41.900Z,11.55
2022-12-26T20:09:44.162Z,4.20
2022-12-26T20:14:45.922Z,5.13
2022-12-26T20:19:48.082Z,1.10
2022-12-26T20:24:49.700Z,0.65
2022-12-26T20:29:51.301Z,0.93
2022-12-26T20:34:52.925Z,0.57
2022-12-26T20:39:54.777Z,0.32
2022-12-26T20:44:56.368Z,0.52
2022-12-26T20:49:58.233Z,0.60
2022-12-26T20:54:59.916Z,1.73
2022-12-26T21:00:01.818Z,0.40
2022-12-26T21:05:04.201Z,0.35
2022-12-26T21:10:06.782Z,1.20
2022-12-26T21:15:10.445Z,0.73
2022-12-26T21:20:13.949Z,0.60
2022-12-26T21:25:15.653Z,0.50
2022-12-26T21:30:18.915Z,1.67
2022-12-26T21:35:20.759Z,0.25
2022-12-26T21:40:24.100Z,3.00
2022-12-26T21:45:26.667Z,0.85
2022-12-26T21:50:28.272Z,0.60
2022-12-26T21:55:31.198Z,0.20
2022-12-26T22:00:34.956Z,0.20
2022-12-26T22:05:40.014Z,0.20
2022-12-26T22:11:04.521Z,0.30
2022-12-26T22:16:08.925Z,0.10
2022-12-26T22:21:19.463Z,0.25
2022-12-26T22:26:23.251Z,0.10
2022-12-26T22:31:32.146Z,0.28
2022-12-26T22:41:37.429Z,0.17
2022-12-26T22:46:39.537Z,0.13
2022-12-26T22:51:41.847Z,0.03
2022-12-26T22:56:43.438Z,0.15
2022-12-26T23:01:45.142Z,0.10
2022-12-26T23:06:47.176Z,0.10
2022-12-26T23:12:11.635Z,0.10
2022-12-26T23:17:36.602Z,0.10
2022-12-26T23:22:38.444Z,0.20
2022-12-26T23:27:58.613Z,0.10
2022-12-26T23:33:00.469Z,0.20
2022-12-26T23:38:02.104Z,0.10
2022-12-26T23:43:03.807Z,0.30
2022-12-26T23:48:05.468Z,0.05
2022-12-26T23:53:07.276Z,0.10
2022-12-26T23:58:09.113Z,0.20
